createdAt,value
2023-09-19T00:01:53.740Z,95359.66
2023-09-19T00:04:24.932Z,95362.75
2023-09-19T00:06:51.611Z,95355.22
2023-09-19T00:09:18.260Z,95348.88
2023-09-19T00:11:45.773Z,95348.19
2023-09-19T00:14:15.727Z,95357.16
2023-09-19T00:16:42.556Z,95369.84
2023-09-19T00:19:10.392Z,95364.91
2023-09-19T00:21:39.054Z,95359.75
2023-09-19T00:24:07.372Z,95356.47
2023-09-19T00:26:35.531Z,95365.97
2023-09-19T00:29:04.913Z,95371.63
2023-09-19T00:31:32.252Z,95379.66
2023-09-19T00:34:01.278Z,95367.38
2023-09-19T00:36:27.970Z,95363.78
2023-09-19T00:38:54.585Z,95368.34
2023-09-19T00:41:22.281Z,95371.81
2023-09-19T00:43:49.212Z,95362.69
2023-09-19T00:46:18.948Z,95365.97
2023-09-19T00:48:45.819Z,95356.97
2023-09-19T00:51:14.892Z,95357.66
2023-09-19T00:53:47.672Z,95362.22
2023-09-19T00:56:16.323Z,95363.91
2023-09-19T00:58:43.220Z,95362.75
2023-09-19T01:01:10.085Z,95356.97
2023-09-19T01:03:38.390Z,95359.84
2023-09-19T01:06:05.486Z,95362.03
2023-09-19T01:08:32.936Z,95362.41
2023-09-19T01:11:19.083Z,95374.91
2023-09-19T01:14:08.571Z,95379.66
2023-09-19T01:16:47.326Z,95379.00
2023-09-19T01:19:35.138Z,95381.38
2023-09-19T01:22:30.214Z,95379.84
2023-09-19T01:25:21.394Z,95381.72
2023-09-19T01:27:58.792Z,95376.38
2023-09-19T01:30:32.658Z,95382.50
2023-09-19T01:33:00.709Z,95372.44
2023-09-19T01:35:27.426Z,95391.19
2023-09-19T01:37:55.005Z,95384.53
2023-09-19T01:40:24.923Z,95389.59
2023-09-19T01:43:05.691Z,95392.56
2023-09-19T01:45:48.126Z,95396.13
2023-09-19T01:48:27.954Z,95402.97
2023-09-19T01:51:03.849Z,95402.66
2023-09-19T01:53:52.758Z,95411.00
2023-09-19T01:56:26.584Z,95409.91
2023-09-19T01:58:57.911Z,95410.69
2023-09-19T02:01:27.912Z,95417.56
2023-09-19T02:03:55.413Z,95420.31
2023-09-19T02:06:22.967Z,95420.91
2023-09-19T02:08:50.443Z,95421.91
2023-09-19T02:11:17.338Z,95422.09
2023-09-19T02:13:44.631Z,95425.34
2023-09-19T02:16:12.796Z,95422.78
2023-09-19T02:18:40.633Z,95435.16
2023-09-19T02:21:13.687Z,95435.34
2023-09-19T02:23:41.079Z,95434.06
2023-09-19T02:26:08.512Z,95428.53
2023-09-19T02:28:37.193Z,95426.31
2023-09-19T02:31:03.893Z,95421.38
2023-09-19T02:33:34.106Z,95421.97
2023-09-19T02:36:02.428Z,95421.38
2023-09-19T02:38:30.387Z,95419.75
2023-09-19T02:40:57.746Z,95430.66
2023-09-19T02:43:24.943Z,95426.41
2023-09-19T02:45:52.072Z,95424.81
2023-09-19T02:48:19.621Z,95431.78
2023-09-19T02:50:47.871Z,95440.88
2023-09-19T02:53:15.150Z,95435.47
2023-09-19T02:55:42.129Z,95434.16
2023-09-19T02:58:09.280Z,95441.22
2023-09-19T03:00:36.812Z,95444.88
2023-09-19T03:03:03.713Z,95437.97
2023-09-19T03:05:33.050Z,95433.31
2023-09-19T03:08:02.050Z,95433.06
2023-09-19T03:10:29.373Z,95436.66
2023-09-19T03:12:56.236Z,95437.44
2023-09-19T03:15:23.248Z,95427.66
2023-09-19T03:17:50.767Z,95437.44
2023-09-19T03:20:18.850Z,95433.88
2023-09-19T03:22:47.093Z,95439.94
2023-09-19T03:25:14.901Z,95432.50
2023-09-19T03:27:41.921Z,95442.63
2023-09-19T03:30:10.195Z,95446.06
2023-09-19T03:32:37.460Z,95439.53
2023-09-19T03:35:06.612Z,95440.81
2023-09-19T03:37:34.447Z,95438.63
2023-09-19T03:40:06.051Z,95436.84
2023-09-19T03:42:33.273Z,95440.09
2023-09-19T03:45:02.167Z,95441.91
2023-09-19T03:47:28.879Z,95444.69
2023-09-19T03:49:55.636Z,95441.59
2023-09-19T03:52:22.353Z,95442.59
2023-09-19T03:54:49.071Z,95446.03
2023-09-19T03:57:18.402Z,95443.75
2023-09-19T03:59:45.176Z,95445.94
2023-09-19T04:02:23.619Z,95441.50
2023-09-19T04:04:50.999Z,95445.66
2023-09-19T04:07:18.657Z,95446.34
2023-09-19T04:09:45.398Z,95445.28
2023-09-19T04:12:12.431Z,95444.69
2023-09-19T04:14:39.905Z,95446.34
2023-09-19T04:17:08.775Z,95459.34
2023-09-19T04:19:38.322Z,95464.19
2023-09-19T04:22:05.649Z,95459.16
2023-09-19T04:24:33.477Z,95455.94
2023-09-19T04:27:02.969Z,95468.66
2023-09-19T04:29:33.132Z,95468.16
2023-09-19T04:31:59.866Z,95476.50
2023-09-19T04:34:26.706Z,95477.28
2023-09-19T04:36:54.216Z,95478.78
2023-09-19T04:39:22.277Z,95477.78
2023-09-19T04:41:49.467Z,95483.41
2023-09-19T04:44:17.140Z,95491.06
2023-09-19T04:46:44.041Z,95486.81
2023-09-19T04:49:10.829Z,95491.06
2023-09-19T04:51:37.848Z,95493.13
2023-09-19T04:54:05.182Z,95497.66
2023-09-19T04:56:32.881Z,95507.69
2023-09-19T04:59:00.218Z,95506.91
2023-09-19T05:01:27.523Z,95505.63
2023-09-19T05:03:54.353Z,95511.63
2023-09-19T05:06:24.087Z,95520.91
2023-09-19T05:08:54.551Z,95519.00
2023-09-19T05:11:25.793Z,95520.72
2023-09-19T05:13:54.504Z,95521.13
2023-09-19T05:16:21.658Z,95530.91
2023-09-19T05:18:48.441Z,95525.19
2023-09-19T05:21:15.149Z,95527.16
2023-09-19T05:23:42.651Z,95539.09
2023-09-19T05:26:09.892Z,95542.44
2023-09-19T05:28:37.125Z,95543.75
2023-09-19T05:31:03.998Z,95526.19
2023-09-19T05:33:33.387Z,95540.47
2023-09-19T05:36:00.363Z,95542.97
2023-09-19T05:38:27.916Z,95545.72
2023-09-19T05:40:55.398Z,95558.03
2023-09-19T05:43:22.348Z,95555.06
2023-09-19T05:45:49.390Z,95562.69
2023-09-19T05:48:17.750Z,95560.97
2023-09-19T05:50:46.133Z,95572.69
2023-09-19T05:53:16.039Z,95568.72
2023-09-19T05:55:43.109Z,95566.03
2023-09-19T05:58:11.484Z,95573.97
2023-09-19T06:00:39.746Z,95573.06
2023-09-19T06:03:07.083Z,95568.31
2023-09-19T06:05:34.144Z,95577.56
2023-09-19T06:08:02.059Z,95583.00
2023-09-19T06:10:29.489Z,95581.28
2023-09-19T06:12:59.725Z,95590.13
2023-09-19T06:15:27.160Z,95588.13
2023-09-19T06:17:59.267Z,95594.69
2023-09-19T06:20:27.175Z,95592.81
2023-09-19T06:22:54.771Z,95590.13
2023-09-19T06:25:23.522Z,95583.38
2023-09-19T06:27:56.255Z,95587.00
2023-09-19T06:30:26.937Z,95592.66
2023-09-19T06:32:58.540Z,95590.63
2023-09-19T06:35:30.948Z,95596.88
2023-09-19T06:37:59.778Z,95598.03
2023-09-19T06:40:26.895Z,95596.16
2023-09-19T06:42:55.704Z,95595.16
2023-09-19T06:45:23.410Z,95602.38
2023-09-19T06:47:52.533Z,95607.91
2023-09-19T06:50:23.410Z,95609.28
2023-09-19T06:52:53.090Z,95612.84
2023-09-19T06:55:21.578Z,95604.78
2023-09-19T06:57:49.441Z,95610.25
2023-09-19T07:00:17.333Z,95608.25
2023-09-19T07:02:44.440Z,95610.06
2023-09-19T07:05:11.686Z,95617.50
2023-09-19T07:07:38.505Z,95620.19
2023-09-19T07:10:06.946Z,95610.78
2023-09-19T07:12:36.669Z,95620.59
2023-09-19T07:15:04.057Z,95627.38
2023-09-19T07:17:31.186Z,95639.88
2023-09-19T07:19:59.206Z,95634.25
2023-09-19T07:22:28.280Z,95640.59
2023-09-19T07:24:55.231Z,95640.09
2023-09-19T07:27:22.003Z,95630.69
2023-09-19T07:29:50.661Z,95639.06
2023-09-19T07:32:19.067Z,95632.16
2023-09-19T07:34:46.060Z,95634.13
2023-09-19T07:37:14.504Z,95638.56
2023-09-19T07:39:42.624Z,95634.34
2023-09-19T07:42:09.394Z,95643.16
2023-09-19T07:44:37.534Z,95647.38
2023-09-19T07:47:04.633Z,95642.25
2023-09-19T07:49:31.509Z,95641.94
2023-09-19T07:51:58.659Z,95643.91
2023-09-19T07:54:25.542Z,95638.78
2023-09-19T07:56:52.232Z,95639.69
2023-09-19T07:59:18.925Z,95643.16
2023-09-19T08:01:45.882Z,95651.69
2023-09-19T08:04:12.738Z,95644.16
2023-09-19T08:06:40.628Z,95640.75
2023-09-19T08:09:10.611Z,95640.31
2023-09-19T08:11:37.290Z,95644.28
2023-09-19T08:14:04.086Z,95643.78
2023-09-19T08:16:31.022Z,95645.69
2023-09-19T08:18:57.799Z,95649.19
2023-09-19T08:21:25.628Z,95646.50
2023-09-19T08:23:52.344Z,95648.72
2023-09-19T08:26:19.015Z,95647.47
2023-09-19T08:28:45.746Z,95649.03
2023-09-19T08:31:12.660Z,95651.09
2023-09-19T08:33:39.910Z,95647.47
2023-09-19T08:36:08.606Z,95651.41
2023-09-19T08:38:36.879Z,95657.72
2023-09-19T08:41:09.421Z,95656.59
2023-09-19T08:43:36.818Z,95646.69
2023-09-19T08:46:06.321Z,95647.31
2023-09-19T08:48:35.782Z,95651.13
2023-09-19T08:51:11.791Z,95652.66
2023-09-19T08:54:00.582Z,95658.09
2023-09-19T08:56:28.002Z,95654.31
2023-09-19T08:59:05.615Z,95645.47
2023-09-19T09:01:33.925Z,95643.16
2023-09-19T09:04:03.263Z,95652.13
2023-09-19T09:06:31.121Z,95652.13
2023-09-19T09:08:57.987Z,95658.09
2023-09-19T09:11:26.346Z,95653.41
2023-09-19T09:13:53.113Z,95646.75
2023-09-19T09:16:20.610Z,95659.00
2023-09-19T09:18:54.436Z,95649.25
2023-09-19T09:21:23.157Z,95654.69
2023-09-19T09:23:51.205Z,95651.19
2023-09-19T09:26:17.940Z,95653.97
2023-09-19T09:28:49.721Z,95657.00
2023-09-19T09:31:26.590Z,95662.66
2023-09-19T09:33:57.284Z,95656.72
2023-09-19T09:36:42.894Z,95652.97
2023-09-19T09:39:26.730Z,95657.72
2023-09-19T09:41:53.639Z,95657.72
2023-09-19T09:44:20.841Z,95648.47
2023-09-19T09:46:55.943Z,95646.81
2023-09-19T09:49:35.571Z,95647.06
2023-09-19T09:52:18.460Z,95641.66
2023-09-19T09:55:07.397Z,95643.91
2023-09-19T09:57:34.941Z,95644.03
2023-09-19T10:00:15.346Z,95647.34
2023-09-19T10:02:42.815Z,95653.81
2023-09-19T10:05:29.870Z,95655.13
2023-09-19T10:08:02.141Z,95647.44
2023-09-19T10:10:44.452Z,95658.28
2023-09-19T10:13:19.395Z,95656.00
2023-09-19T10:15:53.781Z,95654.63
2023-09-19T10:18:26.395Z,95660.97
2023-09-19T10:20:53.492Z,95662.44
2023-09-19T10:23:25.242Z,95673.84
2023-09-19T10:25:53.678Z,95665.16
2023-09-19T10:28:23.696Z,95666.94
2023-09-19T10:30:52.858Z,95661.53
2023-09-19T10:33:22.249Z,95662.81
2023-09-19T10:35:52.934Z,95658.50
2023-09-19T10:38:22.405Z,95661.69
2023-09-19T10:40:52.201Z,95658.22
2023-09-19T10:43:20.791Z,95663.66
2023-09-19T10:45:50.686Z,95668.72
2023-09-19T10:48:21.727Z,95661.63
2023-09-19T10:51:06.285Z,95667.84
2023-09-19T10:53:48.572Z,95662.25
2023-09-19T10:56:29.075Z,95662.56
2023-09-19T10:59:12.402Z,95665.13
2023-09-19T11:01:52.772Z,95661.44
2023-09-19T11:04:40.268Z,95663.75
2023-09-19T11:07:16.814Z,95657.41
2023-09-19T11:09:54.720Z,95658.22
2023-09-19T11:12:30.472Z,95659.13
2023-09-19T11:14:57.171Z,95655.84
2023-09-19T11:17:38.877Z,95659.00
2023-09-19T11:20:15.812Z,95655.72
2023-09-19T11:22:53.314Z,95653.22
2023-09-19T11:25:33.418Z,95659.19
2023-09-19T11:28:26.565Z,95655.72
2023-09-19T11:30:56.840Z,95650.50
2023-09-19T11:33:34.569Z,95653.81
2023-09-19T11:36:06.581Z,95641.97
2023-09-19T11:38:51.538Z,95652.34
2023-09-19T11:41:21.217Z,95649.84
2023-09-19T11:43:48.954Z,95648.28
2023-09-19T11:46:17.801Z,95644.56
2023-09-19T11:48:45.682Z,95646.59
2023-09-19T11:51:20.675Z,95632.19
2023-09-19T11:53:50.834Z,95637.78
2023-09-19T11:56:19.422Z,95645.34
2023-09-19T11:58:47.056Z,95648.53
2023-09-19T12:01:16.102Z,95646.13
2023-09-19T12:03:49.181Z,95632.28
2023-09-19T12:06:16.722Z,95633.84
2023-09-19T12:08:44.913Z,95638.81
2023-09-19T12:11:16.510Z,95630.88
2023-09-19T12:13:47.878Z,95622.69
2023-09-19T12:16:23.269Z,95619.69
2023-09-19T12:18:52.757Z,95629.53
2023-09-19T12:21:28.475Z,95620.53
2023-09-19T12:24:05.830Z,95631.13
2023-09-19T12:26:46.779Z,95632.25
2023-09-19T12:29:18.935Z,95626.28
2023-09-19T12:31:56.739Z,95628.44
2023-09-19T12:34:36.263Z,95621.78
2023-09-19T12:37:14.434Z,95621.69
2023-09-19T12:39:42.460Z,95625.03
2023-09-19T12:42:11.424Z,95624.44
2023-09-19T12:44:42.835Z,95619.53
2023-09-19T12:47:15.440Z,95625.53
2023-09-19T12:50:07.777Z,95620.63
2023-09-19T12:52:42.920Z,95622.06
2023-09-19T12:55:30.156Z,95610.13
2023-09-19T12:57:59.227Z,95616.34
2023-09-19T13:00:43.449Z,95621.53
2023-09-19T13:03:29.871Z,95617.34
2023-09-19T13:06:02.126Z,95611.66
2023-09-19T13:08:33.784Z,95612.59
2023-09-19T13:11:19.074Z,95609.69
2023-09-19T13:13:55.163Z,95615.84
2023-09-19T13:16:24.459Z,95611.16
2023-09-19T13:18:58.346Z,95607.94
2023-09-19T13:21:44.356Z,95610.03
2023-09-19T13:24:29.011Z,95598.53
2023-09-19T13:26:56.200Z,95602.41
2023-09-19T13:29:23.408Z,95595.19
2023-09-19T13:31:51.483Z,95594.34
2023-09-19T13:34:18.901Z,95603.03
2023-09-19T13:36:46.292Z,95596.16
2023-09-19T13:39:17.327Z,95586.72
2023-09-19T13:41:49.205Z,95584.09
2023-09-19T13:44:16.274Z,95587.47
2023-09-19T13:46:47.314Z,95588.94
2023-09-19T13:49:14.742Z,95588.00
2023-09-19T13:51:45.439Z,95589.69
2023-09-19T13:54:15.723Z,95583.94
2023-09-19T13:56:42.524Z,95576.19
2023-09-19T13:59:09.412Z,95575.63
2023-09-19T14:01:36.299Z,95582.50
2023-09-19T14:04:03.845Z,95584.06
2023-09-19T14:06:30.694Z,95578.91
2023-09-19T14:08:57.562Z,95592.91
2023-09-19T14:11:24.312Z,95584.75
2023-09-19T14:13:51.062Z,95586.03
2023-09-19T14:16:19.001Z,95587.03
2023-09-19T14:18:47.126Z,95570.13
2023-09-19T14:21:13.965Z,95583.47
2023-09-19T14:23:40.836Z,95578.59
2023-09-19T14:26:07.626Z,95590.53
2023-09-19T14:28:37.832Z,95589.31
2023-09-19T14:31:11.347Z,95592.03
2023-09-19T14:33:39.524Z,95586.03
2023-09-19T14:36:07.890Z,95581.75
2023-09-19T14:38:35.392Z,95585.13
2023-09-19T14:41:06.089Z,95577.34
2023-09-19T14:43:34.094Z,95576.69
2023-09-19T14:46:11.951Z,95573.53
2023-09-19T14:48:39.174Z,95579.16
2023-09-19T14:51:09.889Z,95576.25
2023-09-19T14:53:40.646Z,95573.19
2023-09-19T14:56:10.364Z,95570.81
2023-09-19T14:58:37.448Z,95572.09
2023-09-19T15:01:11.539Z,95564.66
2023-09-19T15:03:40.920Z,95562.63
2023-09-19T15:06:18.389Z,95549.00
2023-09-19T15:08:49.276Z,95548.28
2023-09-19T15:11:20.112Z,95552.56
2023-09-19T15:13:51.861Z,95558.22
2023-09-19T15:16:18.633Z,95547.63
2023-09-19T15:18:49.169Z,95555.19
2023-09-19T15:21:16.595Z,95557.66
2023-09-19T15:23:44.425Z,95552.94
2023-09-19T15:26:13.098Z,95550.56
2023-09-19T15:28:41.115Z,95545.97
2023-09-19T15:31:10.622Z,95536.50
2023-09-19T15:33:38.652Z,95535.38
2023-09-19T15:36:13.196Z,95538.09
2023-09-19T15:39:12.379Z,95538.06
2023-09-19T15:41:46.140Z,95537.50
2023-09-19T15:44:18.825Z,95544.06
2023-09-19T15:46:46.373Z,95537.19
2023-09-19T15:49:14.499Z,95536.50
2023-09-19T15:51:41.888Z,95544.25
2023-09-19T15:54:15.092Z,95537.88
2023-09-19T15:56:43.206Z,95535.00
2023-09-19T15:59:16.462Z,95546.84
2023-09-19T16:01:45.026Z,95546.47
2023-09-19T16:04:13.792Z,95545.97
2023-09-19T16:06:42.402Z,95549.19
2023-09-19T16:09:11.394Z,95551.88
2023-09-19T16:11:38.364Z,95540.81
2023-09-19T16:14:07.669Z,95548.34
2023-09-19T16:16:36.549Z,95544.19
2023-09-19T16:19:04.899Z,95556.56
2023-09-19T16:21:34.151Z,95553.59
2023-09-19T16:24:01.182Z,95553.28
2023-09-19T16:26:30.034Z,95556.34
2023-09-19T16:29:02.121Z,95558.44
2023-09-19T16:31:30.783Z,95559.00
2023-09-19T16:33:57.979Z,95556.22
2023-09-19T16:36:25.319Z,95553.75
2023-09-19T16:38:52.788Z,95554.47
2023-09-19T16:41:20.717Z,95549.06
2023-09-19T16:43:47.772Z,95559.22
2023-09-19T16:46:18.084Z,95566.03
2023-09-19T16:51:17.821Z,95573.56
2023-09-19T16:53:47.071Z,95568.22
2023-09-19T16:56:15.646Z,95571.25
2023-09-19T16:58:43.987Z,95577.78
2023-09-19T17:01:12.401Z,95570.53
2023-09-19T17:03:42.751Z,95569.19
2023-09-19T17:06:15.913Z,95566.69
2023-09-19T17:08:47.232Z,95574.31
2023-09-19T17:11:17.585Z,95570.72
2023-09-19T17:13:48.642Z,95580.56
2023-09-19T17:16:20.053Z,95581.06
2023-09-19T17:18:48.648Z,95579.50
2023-09-19T17:21:16.573Z,95573.50
2023-09-19T17:23:43.491Z,95576.41
2023-09-19T17:26:15.448Z,95577.88
2023-09-19T17:28:43.372Z,95572.53
2023-09-19T17:31:18.641Z,95575.03
2023-09-19T17:33:47.376Z,95583.63
2023-09-19T17:36:19.296Z,95580.81
2023-09-19T17:38:50.537Z,95584.66
2023-09-19T17:41:17.709Z,95578.69
2023-09-19T17:43:48.805Z,95587.72
2023-09-19T17:46:17.894Z,95586.78
2023-09-19T17:48:47.466Z,95591.69
2023-09-19T17:51:16.088Z,95583.78
2023-09-19T17:53:43.836Z,95593.31
2023-09-19T17:56:18.054Z,95584.13
2023-09-19T17:58:47.433Z,95600.44
2023-09-19T18:01:19.274Z,95596.94
2023-09-19T18:03:46.224Z,95594.75
2023-09-19T18:06:14.929Z,95593.34
2023-09-19T18:08:45.180Z,95593.47
2023-09-19T18:11:17.254Z,95591.56
2023-09-19T18:13:45.604Z,95584.09
2023-09-19T18:16:13.055Z,95588.38
2023-09-19T18:18:40.006Z,95595.34
2023-09-19T18:21:07.171Z,95590.28
2023-09-19T18:23:35.220Z,95596.28
2023-09-19T18:26:09.243Z,95590.28
2023-09-19T18:28:40.443Z,95606.72
2023-09-19T18:31:10.899Z,95598.00
2023-09-19T18:36:07.839Z,95602.22
2023-09-19T18:41:12.770Z,95614.84
2023-09-19T18:43:40.701Z,95615.66
2023-09-19T18:46:14.781Z,95620.84
2023-09-19T18:48:48.339Z,95615.41
2023-09-19T18:51:18.421Z,95628.56
2023-09-19T18:53:56.778Z,95624.84
2023-09-19T18:56:28.599Z,95633.66
2023-09-19T18:58:56.073Z,95638.00
2023-09-19T19:01:22.832Z,95637.53
2023-09-19T19:03:53.317Z,95643.41
2023-09-19T19:06:20.093Z,95623.75
2023-09-19T19:08:47.493Z,95628.31
2023-09-19T19:11:22.907Z,95627.06
2023-09-19T19:13:53.577Z,95640.31
2023-09-19T19:16:21.749Z,95636.81
2023-09-19T19:18:49.639Z,95639.44
2023-09-19T19:21:17.451Z,95634.66
2023-09-19T19:23:44.489Z,95637.94
2023-09-19T19:26:12.622Z,95632.91
2023-09-19T19:28:41.903Z,95642.31
2023-09-19T19:31:10.888Z,95643.03
2023-09-19T19:33:40.070Z,95639.28
2023-09-19T19:36:08.906Z,95637.06
2023-09-19T19:38:35.881Z,95641.38
2023-09-19T19:41:03.000Z,95632.97
2023-09-19T19:43:30.057Z,95637.94
2023-09-19T19:46:02.262Z,95642.03
2023-09-19T19:48:30.541Z,95648.09
2023-09-19T19:50:58.819Z,95654.59
2023-09-19T19:53:26.173Z,95654.91
2023-09-19T19:55:53.005Z,95640.91
2023-09-19T19:58:22.628Z,95652.31
2023-09-19T20:00:51.003Z,95657.06
2023-09-19T20:03:18.782Z,95646.75
2023-09-19T20:05:47.766Z,95665.22
2023-09-19T20:08:14.772Z,95664.66
2023-09-19T20:10:42.230Z,95671.75
2023-09-19T20:13:10.345Z,95672.06
2023-09-19T20:15:40.100Z,95661.34
2023-09-19T20:18:14.519Z,95669.00
2023-09-19T20:20:41.288Z,95673.84
2023-09-19T20:23:08.196Z,95665.63
2023-09-19T20:25:35.863Z,95674.16
2023-09-19T20:28:04.338Z,95674.28
2023-09-19T20:30:32.916Z,95663.75
2023-09-19T20:33:03.115Z,95668.41
2023-09-19T20:35:30.402Z,95669.38
2023-09-19T20:38:02.132Z,95668.00
2023-09-19T20:40:29.062Z,95674.47
2023-09-19T20:42:55.935Z,95683.88
2023-09-19T20:45:22.762Z,95680.22
2023-09-19T20:47:51.575Z,95681.38
2023-09-19T20:50:19.876Z,95677.25
2023-09-19T20:52:46.819Z,95684.41
2023-09-19T20:55:13.570Z,95680.13
2023-09-19T20:57:40.245Z,95673.25
2023-09-19T21:00:09.999Z,95683.88
2023-09-19T21:02:38.615Z,95691.47
2023-09-19T21:05:06.116Z,95695.56
2023-09-19T21:07:33.367Z,95693.81
2023-09-19T21:10:01.253Z,95690.31
2023-09-19T21:12:27.954Z,95689.25
2023-09-19T21:14:54.836Z,95683.69
2023-09-19T21:17:21.659Z,95685.63
2023-09-19T21:19:48.506Z,95688.41
2023-09-19T21:22:15.438Z,95690.69
2023-09-19T21:24:42.407Z,95690.84
2023-09-19T21:27:09.330Z,95686.50
2023-09-19T21:29:35.980Z,95678.63
2023-09-19T21:32:03.573Z,95690.03
2023-09-19T21:34:31.057Z,95686.88
2023-09-19T21:36:58.360Z,95688.63
2023-09-19T21:39:25.113Z,95691.44
2023-09-19T21:41:52.773Z,95685.53
2023-09-19T21:44:19.601Z,95684.00
2023-09-19T21:46:46.582Z,95688.97
2023-09-19T21:49:13.490Z,95690.59
2023-09-19T21:51:40.229Z,95685.31
2023-09-19T21:54:07.074Z,95693.34
2023-09-19T21:56:33.849Z,95685.81
2023-09-19T21:59:00.667Z,95680.09
2023-09-19T22:01:29.200Z,95679.22
2023-09-19T22:03:56.089Z,95680.84
2023-09-19T22:06:22.984Z,95683.28
2023-09-19T22:08:51.360Z,95680.63
2023-09-19T22:11:21.906Z,95675.31
2023-09-19T22:13:49.708Z,95662.25
2023-09-19T22:16:18.281Z,95667.91
2023-09-19T22:18:51.921Z,95683.94
2023-09-19T22:21:24.256Z,95680.84
2023-09-19T22:23:51.418Z,95679.59
2023-09-19T22:26:24.279Z,95671.28
2023-09-19T22:28:54.382Z,95679.75
2023-09-19T22:31:24.151Z,95684.53
2023-09-19T22:33:56.298Z,95678.03
2023-09-19T22:36:40.409Z,95675.41
2023-09-19T22:39:17.884Z,95673.44
2023-09-19T22:41:44.676Z,95674.38
2023-09-19T22:44:11.898Z,95678.22
2023-09-19T22:46:38.734Z,95679.66
2023-09-19T22:49:13.602Z,95681.25
2023-09-19T22:51:47.442Z,95682.34
2023-09-19T22:54:14.358Z,95698.16
2023-09-19T22:56:41.751Z,95691.63
2023-09-19T22:59:09.470Z,95695.81
2023-09-19T23:01:42.920Z,95695.06
2023-09-19T23:04:12.988Z,95702.81
2023-09-19T23:06:40.860Z,95703.34
2023-09-19T23:09:10.398Z,95702.84
2023-09-19T23:11:37.378Z,95684.47
2023-09-19T23:14:04.060Z,95685.88
2023-09-19T23:16:34.619Z,95688.69
2023-09-19T23:19:21.226Z,95690.34
2023-09-19T23:21:52.575Z,95681.38
2023-09-19T23:24:20.514Z,95690.00
2023-09-19T23:26:47.570Z,95679.66
2023-09-19T23:29:14.249Z,95682.00
2023-09-19T23:31:45.234Z,95691.47
2023-09-19T23:34:15.038Z,95689.53
2023-09-19T23:36:41.800Z,95690.16
2023-09-19T23:39:09.711Z,95683.03
2023-09-19T23:41:39.518Z,95674.91
2023-09-19T23:44:14.175Z,95684.72
2023-09-19T23:46:42.831Z,95675.47
2023-09-19T23:49:10.860Z,95678.81
2023-09-19T23:51:39.569Z,95675.13
2023-09-19T23:54:08.108Z,95683.97
2023-09-19T23:56:34.807Z,95681.88
2023-09-19T23:59:02.091Z,95689.66
